sensor_id;sensor_type;location;lat;lon;timestamp;temperature;humidity
12827;DHT22;66927;48.812;9.118;2023-09-07T00:02:22;21.90;94.20
12827;DHT22;66927;48.812;9.118;2023-09-07T00:04:48;22.00;94.10
12827;DHT22;66927;48.812;9.118;2023-09-07T00:07:15;21.90;94.00
12827;DHT22;66927;48.812;9.118;2023-09-07T00:09:40;21.90;94.20
12827;DHT22;66927;48.812;9.118;2023-09-07T00:12:07;21.80;94.10
12827;DHT22;66927;48.812;9.118;2023-09-07T00:14:33;21.80;94.10
12827;DHT22;66927;48.812;9.118;2023-09-07T00:16:58;21.80;94.20
12827;DHT22;66927;48.812;9.118;2023-09-07T00:19:24;21.80;94.30
12827;DHT22;66927;48.812;9.118;2023-09-07T00:21:52;21.70;94.40
12827;DHT22;66927;48.812;9.118;2023-09-07T00:24:18;21.70;94.40
12827;DHT22;66927;48.812;9.118;2023-09-07T00:26:45;21.70;94.80
12827;DHT22;66927;48.812;9.118;2023-09-07T00:29:10;21.60;94.50
12827;DHT22;66927;48.812;9.118;2023-09-07T00:31:36;21.60;94.80
12827;DHT22;66927;48.812;9.118;2023-09-07T00:34:01;21.50;94.70
12827;DHT22;66927;48.812;9.118;2023-09-07T00:36:29;21.50;94.90
12827;DHT22;66927;48.812;9.118;2023-09-07T00:38:55;21.40;94.90
12827;DHT22;66927;48.812;9.118;2023-09-07T00:41:20;21.40;95.10
12827;DHT22;66927;48.812;9.118;2023-09-07T00:43:46;21.30;95.20
12827;DHT22;66927;48.812;9.118;2023-09-07T00:46:12;21.30;95.20
12827;DHT22;66927;48.812;9.118;2023-09-07T00:48:38;21.30;95.10
12827;DHT22;66927;48.812;9.118;2023-09-07T00:51:04;21.30;95.30
12827;DHT22;66927;48.812;9.118;2023-09-07T00:53:30;21.40;95.30
12827;DHT22;66927;48.812;9.118;2023-09-07T00:55:56;21.40;95.30
12827;DHT22;66927;48.812;9.118;2023-09-07T00:58:22;21.30;95.20
12827;DHT22;66927;48.812;9.118;2023-09-07T01:00:48;21.30;95.30
12827;DHT22;66927;48.812;9.118;2023-09-07T01:03:14;21.20;95.30
12827;DHT22;66927;48.812;9.118;2023-09-07T01:05:47;21.20;95.40
12827;DHT22;66927;48.812;9.118;2023-09-07T01:08:24;21.20;95.50
12827;DHT22;66927;48.812;9.118;2023-09-07T01:10:51;21.10;95.60
12827;DHT22;66927;48.812;9.118;2023-09-07T01:13:18;21.00;95.70
12827;DHT22;66927;48.812;9.118;2023-09-07T01:15:44;21.00;95.80
12827;DHT22;66927;48.812;9.118;2023-09-07T01:18:10;21.00;95.90
12827;DHT22;66927;48.812;9.118;2023-09-07T01:20:36;21.00;95.90
12827;DHT22;66927;48.812;9.118;2023-09-07T01:23:04;21.10;95.80
12827;DHT22;66927;48.812;9.118;2023-09-07T01:25:30;21.10;95.70
12827;DHT22;66927;48.812;9.118;2023-09-07T01:27:57;21.10;95.70
12827;DHT22;66927;48.812;9.118;2023-09-07T01:30:24;21.00;95.70
12827;DHT22;66927;48.812;9.118;2023-09-07T01:32:50;21.00;95.80
12827;DHT22;66927;48.812;9.118;2023-09-07T01:35:16;21.00;95.80
12827;DHT22;66927;48.812;9.118;2023-09-07T01:37:43;20.80;96.00
12827;DHT22;66927;48.812;9.118;2023-09-07T01:40:09;20.80;96.20
12827;DHT22;66927;48.812;9.118;2023-09-07T01:42:35;20.70;96.20
12827;DHT22;66927;48.812;9.118;2023-09-07T01:45:00;20.80;96.30
12827;DHT22;66927;48.812;9.118;2023-09-07T01:47:26;20.70;96.30
12827;DHT22;66927;48.812;9.118;2023-09-07T01:49:52;20.70;96.40
12827;DHT22;66927;48.812;9.118;2023-09-07T01:52:17;20.70;96.50
12827;DHT22;66927;48.812;9.118;2023-09-07T01:54:43;20.70;96.50
12827;DHT22;66927;48.812;9.118;2023-09-07T01:57:08;20.70;96.50
12827;DHT22;66927;48.812;9.118;2023-09-07T01:59:34;20.60;96.60
12827;DHT22;66927;48.812;9.118;2023-09-07T02:02:00;20.60;96.70
12827;DHT22;66927;48.812;9.118;2023-09-07T02:04:25;20.60;97.10
12827;DHT22;66927;48.812;9.118;2023-09-07T02:06:51;20.60;96.70
12827;DHT22;66927;48.812;9.118;2023-09-07T02:09:17;20.70;96.60
12827;DHT22;66927;48.812;9.118;2023-09-07T02:11:42;20.60;96.70
12827;DHT22;66927;48.812;9.118;2023-09-07T02:14:08;20.60;96.70
12827;DHT22;66927;48.812;9.118;2023-09-07T02:16:35;20.60;96.60
12827;DHT22;66927;48.812;9.118;2023-09-07T02:19:02;20.50;97.20
12827;DHT22;66927;48.812;9.118;2023-09-07T02:21:29;20.60;96.80
12827;DHT22;66927;48.812;9.118;2023-09-07T02:23:56;20.60;96.90
12827;DHT22;66927;48.812;9.118;2023-09-07T02:26:21;20.60;96.80
12827;DHT22;66927;48.812;9.118;2023-09-07T02:28:47;20.60;96.80
12827;DHT22;66927;48.812;9.118;2023-09-07T02:31:12;20.60;96.70
12827;DHT22;66927;48.812;9.118;2023-09-07T02:33:38;20.60;96.70
12827;DHT22;66927;48.812;9.118;2023-09-07T02:36:04;20.50;96.80
12827;DHT22;66927;48.812;9.118;2023-09-07T02:38:29;20.50;96.90
12827;DHT22;66927;48.812;9.118;2023-09-07T02:40:56;20.40;97.00
12827;DHT22;66927;48.812;9.118;2023-09-07T02:43:22;20.40;97.10
12827;DHT22;66927;48.812;9.118;2023-09-07T02:45:50;20.40;97.10
12827;DHT22;66927;48.812;9.118;2023-09-07T02:48:15;20.40;97.20
12827;DHT22;66927;48.812;9.118;2023-09-07T02:50:41;20.40;97.20
12827;DHT22;66927;48.812;9.118;2023-09-07T02:53:08;20.40;97.20
12827;DHT22;66927;48.812;9.118;2023-09-07T02:55:34;20.30;97.30
12827;DHT22;66927;48.812;9.118;2023-09-07T02:58:02;20.20;97.40
12827;DHT22;66927;48.812;9.118;2023-09-07T03:00:28;20.20;97.40
12827;DHT22;66927;48.812;9.118;2023-09-07T03:02:55;20.20;97.70
12827;DHT22;66927;48.812;9.118;2023-09-07T03:05:20;20.20;97.50
12827;DHT22;66927;48.812;9.118;2023-09-07T03:07:46;20.10;97.50
12827;DHT22;66927;48.812;9.118;2023-09-07T03:10:13;20.20;97.60
12827;DHT22;66927;48.812;9.118;2023-09-07T03:12:39;20.10;97.50
12827;DHT22;66927;48.812;9.118;2023-09-07T03:15:05;20.10;97.70
12827;DHT22;66927;48.812;9.118;2023-09-07T03:17:31;20.00;97.70
12827;DHT22;66927;48.812;9.118;2023-09-07T03:19:57;19.90;97.80
12827;DHT22;66927;48.812;9.118;2023-09-07T03:22:23;19.90;98.00
12827;DHT22;66927;48.812;9.118;2023-09-07T03:24:52;19.90;98.00
12827;DHT22;66927;48.812;9.118;2023-09-07T03:27:18;19.90;98.10
12827;DHT22;66927;48.812;9.118;2023-09-07T03:29:49;19.90;97.90
12827;DHT22;66927;48.812;9.118;2023-09-07T03:32:17;19.90;98.00
12827;DHT22;66927;48.812;9.118;2023-09-07T03:34:42;19.90;97.90
12827;DHT22;66927;48.812;9.118;2023-09-07T03:37:08;19.90;98.30
12827;DHT22;66927;48.812;9.118;2023-09-07T03:39:38;19.90;97.90
12827;DHT22;66927;48.812;9.118;2023-09-07T03:42:03;19.80;98.20
12827;DHT22;66927;48.812;9.118;2023-09-07T03:44:29;19.90;98.20
12827;DHT22;66927;48.812;9.118;2023-09-07T03:46:55;19.90;98.20
12827;DHT22;66927;48.812;9.118;2023-09-07T03:49:20;19.90;98.10
12827;DHT22;66927;48.812;9.118;2023-09-07T03:51:46;19.90;98.10
12827;DHT22;66927;48.812;9.118;2023-09-07T03:54:12;19.80;98.30
12827;DHT22;66927;48.812;9.118;2023-09-07T03:56:38;19.80;98.30
12827;DHT22;66927;48.812;9.118;2023-09-07T03:59:04;19.70;98.50
12827;DHT22;66927;48.812;9.118;2023-09-07T04:01:30;19.60;98.70
12827;DHT22;66927;48.812;9.118;2023-09-07T04:03:55;19.60;98.80
12827;DHT22;66927;48.812;9.118;2023-09-07T04:06:21;19.60;98.90
12827;DHT22;66927;48.812;9.118;2023-09-07T04:08:46;19.50;98.70
12827;DHT22;66927;48.812;9.118;2023-09-07T04:11:12;19.50;98.90
12827;DHT22;66927;48.812;9.118;2023-09-07T04:13:39;19.40;99.00
12827;DHT22;66927;48.812;9.118;2023-09-07T04:16:08;19.40;99.00
12827;DHT22;66927;48.812;9.118;2023-09-07T04:18:35;19.50;98.90
12827;DHT22;66927;48.812;9.118;2023-09-07T04:21:08;19.50;98.90
12827;DHT22;66927;48.812;9.118;2023-09-07T04:23:34;19.50;98.90
12827;DHT22;66927;48.812;9.118;2023-09-07T04:26:09;19.40;98.90
12827;DHT22;66927;48.812;9.118;2023-09-07T04:28:35;19.50;99.10
12827;DHT22;66927;48.812;9.118;2023-09-07T04:31:02;19.50;99.00
12827;DHT22;66927;48.812;9.118;2023-09-07T04:33:32;19.50;99.00
12827;DHT22;66927;48.812;9.118;2023-09-07T04:36:07;19.60;98.90
12827;DHT22;66927;48.812;9.118;2023-09-07T04:38:32;19.60;98.90
12827;DHT22;66927;48.812;9.118;2023-09-07T04:41:06;19.50;99.10
12827;DHT22;66927;48.812;9.118;2023-09-07T04:43:32;19.30;99.10
12827;DHT22;66927;48.812;9.118;2023-09-07T04:45:57;19.20;99.20
12827;DHT22;66927;48.812;9.118;2023-09-07T04:48:23;19.10;99.40
12827;DHT22;66927;48.812;9.118;2023-09-07T04:50:48;19.00;99.60
12827;DHT22;66927;48.812;9.118;2023-09-07T04:53:14;19.10;99.60
12827;DHT22;66927;48.812;9.118;2023-09-07T04:55:39;19.10;99.50
12827;DHT22;66927;48.812;9.118;2023-09-07T04:58:05;19.10;99.50
12827;DHT22;66927;48.812;9.118;2023-09-07T05:00:31;19.20;99.40
12827;DHT22;66927;48.812;9.118;2023-09-07T05:02:57;19.10;99.30
12827;DHT22;66927;48.812;9.118;2023-09-07T05:05:23;19.10;99.50
12827;DHT22;66927;48.812;9.118;2023-09-07T05:07:49;19.10;99.40
12827;DHT22;66927;48.812;9.118;2023-09-07T05:10:14;19.20;99.40
12827;DHT22;66927;48.812;9.118;2023-09-07T05:12:40;19.10;99.40
12827;DHT22;66927;48.812;9.118;2023-09-07T05:15:06;19.10;99.40
12827;DHT22;66927;48.812;9.118;2023-09-07T05:17:33;19.20;99.50
12827;DHT22;66927;48.812;9.118;2023-09-07T05:19:59;19.20;99.50
12827;DHT22;66927;48.812;9.118;2023-09-07T05:22:24;19.20;99.40
12827;DHT22;66927;48.812;9.118;2023-09-07T05:24:51;19.10;99.50
12827;DHT22;66927;48.812;9.118;2023-09-07T05:27:17;19.10;99.60
12827;DHT22;66927;48.812;9.118;2023-09-07T05:29:42;19.10;99.80
12827;DHT22;66927;48.812;9.118;2023-09-07T05:32:10;19.10;99.80
12827;DHT22;66927;48.812;9.118;2023-09-07T05:34:35;19.10;99.80
12827;DHT22;66927;48.812;9.118;2023-09-07T05:37:01;19.10;99.80
12827;DHT22;66927;48.812;9.118;2023-09-07T05:39:26;19.10;99.90
12827;DHT22;66927;48.812;9.118;2023-09-07T05:41:52;19.10;99.80
12827;DHT22;66927;48.812;9.118;2023-09-07T05:44:17;19.10;99.90
12827;DHT22;66927;48.812;9.118;2023-09-07T05:46:43;19.10;99.90
12827;DHT22;66927;48.812;9.118;2023-09-07T05:49:08;19.10;99.90
12827;DHT22;66927;48.812;9.118;2023-09-07T05:51:34;19.00;99.90
12827;DHT22;66927;48.812;9.118;2023-09-07T05:54:00;18.90;99.90
12827;DHT22;66927;48.812;9.118;2023-09-07T05:56:25;18.90;99.90
12827;DHT22;66927;48.812;9.118;2023-09-07T05:58:51;19.00;99.90
12827;DHT22;66927;48.812;9.118;2023-09-07T06:01:16;18.90;99.90
12827;DHT22;66927;48.812;9.118;2023-09-07T06:03:42;19.00;99.90
12827;DHT22;66927;48.812;9.118;2023-09-07T06:06:07;19.00;99.90
12827;DHT22;66927;48.812;9.118;2023-09-07T06:08:33;19.10;99.90
12827;DHT22;66927;48.812;9.118;2023-09-07T06:10:59;19.10;99.90
12827;DHT22;66927;48.812;9.118;2023-09-07T06:13:25;19.10;99.90
12827;DHT22;66927;48.812;9.118;2023-09-07T06:15:50;19.10;99.90
12827;DHT22;66927;48.812;9.118;2023-09-07T06:18:16;19.10;99.90
12827;DHT22;66927;48.812;9.118;2023-09-07T06:20:41;19.10;99.90
12827;DHT22;66927;48.812;9.118;2023-09-07T06:23:07;19.00;99.90
12827;DHT22;66927;48.812;9.118;2023-09-07T06:25:33;19.10;99.90
12827;DHT22;66927;48.812;9.118;2023-09-07T06:27:58;19.10;99.90
12827;DHT22;66927;48.812;9.118;2023-09-07T06:30:24;19.10;99.90
12827;DHT22;66927;48.812;9.118;2023-09-07T06:32:49;19.20;99.90
12827;DHT22;66927;48.812;9.118;2023-09-07T06:35:16;19.20;99.90
12827;DHT22;66927;48.812;9.118;2023-09-07T06:37:43;19.20;99.90
12827;DHT22;66927;48.812;9.118;2023-09-07T06:40:09;19.20;99.90
12827;DHT22;66927;48.812;9.118;2023-09-07T06:42:35;19.30;99.90
12827;DHT22;66927;48.812;9.118;2023-09-07T06:45:01;19.30;99.90
12827;DHT22;66927;48.812;9.118;2023-09-07T06:47:26;19.40;99.90
12827;DHT22;66927;48.812;9.118;2023-09-07T06:49:52;19.40;99.90
12827;DHT22;66927;48.812;9.118;2023-09-07T06:52:17;19.50;99.90
12827;DHT22;66927;48.812;9.118;2023-09-07T06:54:43;19.50;99.90
12827;DHT22;66927;48.812;9.118;2023-09-07T06:57:08;19.60;99.90
12827;DHT22;66927;48.812;9.118;2023-09-07T06:59:34;19.60;99.90
12827;DHT22;66927;48.812;9.118;2023-09-07T07:02:00;19.60;99.90
12827;DHT22;66927;48.812;9.118;2023-09-07T07:04:26;19.60;99.90
12827;DHT22;66927;48.812;9.118;2023-09-07T07:06:51;19.60;99.90
12827;DHT22;66927;48.812;9.118;2023-09-07T07:09:17;19.70;99.90
12827;DHT22;66927;48.812;9.118;2023-09-07T07:11:42;19.80;99.90
12827;DHT22;66927;48.812;9.118;2023-09-07T07:14:09;19.90;99.90
12827;DHT22;66927;48.812;9.118;2023-09-07T07:16:37;19.90;99.90
12827;DHT22;66927;48.812;9.118;2023-09-07T07:19:02;20.00;99.90
12827;DHT22;66927;48.812;9.118;2023-09-07T07:21:28;20.00;99.90
12827;DHT22;66927;48.812;9.118;2023-09-07T07:23:54;20.10;99.90
12827;DHT22;66927;48.812;9.118;2023-09-07T07:26:19;20.10;99.90
12827;DHT22;66927;48.812;9.118;2023-09-07T07:28:45;20.20;99.90
12827;DHT22;66927;48.812;9.118;2023-09-07T07:31:11;20.20;99.90
12827;DHT22;66927;48.812;9.118;2023-09-07T07:33:36;20.30;99.90
12827;DHT22;66927;48.812;9.118;2023-09-07T07:36:03;20.40;99.90
12827;DHT22;66927;48.812;9.118;2023-09-07T07:38:29;20.40;99.90
12827;DHT22;66927;48.812;9.118;2023-09-07T07:40:54;20.50;99.90
12827;DHT22;66927;48.812;9.118;2023-09-07T07:43:20;20.50;99.90
12827;DHT22;66927;48.812;9.118;2023-09-07T07:45:46;20.60;99.90
12827;DHT22;66927;48.812;9.118;2023-09-07T07:48:11;20.60;99.90
12827;DHT22;66927;48.812;9.118;2023-09-07T07:50:40;20.70;99.90
12827;DHT22;66927;48.812;9.118;2023-09-07T07:53:07;20.70;99.90
12827;DHT22;66927;48.812;9.118;2023-09-07T07:55:36;20.70;99.90
12827;DHT22;66927;48.812;9.118;2023-09-07T07:58:07;20.80;99.90
12827;DHT22;66927;48.812;9.118;2023-09-07T08:00:36;20.80;99.90
12827;DHT22;66927;48.812;9.118;2023-09-07T08:03:03;20.90;99.90
12827;DHT22;66927;48.812;9.118;2023-09-07T08:05:31;21.00;99.90
12827;DHT22;66927;48.812;9.118;2023-09-07T08:07:57;21.00;99.90
12827;DHT22;66927;48.812;9.118;2023-09-07T08:10:22;21.10;99.90
12827;DHT22;66927;48.812;9.118;2023-09-07T08:12:51;21.10;99.90
12827;DHT22;66927;48.812;9.118;2023-09-07T08:15:16;21.20;99.90
12827;DHT22;66927;48.812;9.118;2023-09-07T08:17:45;21.20;99.90
12827;DHT22;66927;48.812;9.118;2023-09-07T08:20:11;21.30;99.90
12827;DHT22;66927;48.812;9.118;2023-09-07T08:22:36;21.40;99.90
12827;DHT22;66927;48.812;9.118;2023-09-07T08:25:06;21.40;99.90
12827;DHT22;66927;48.812;9.118;2023-09-07T08:27:32;21.50;99.90
12827;DHT22;66927;48.812;9.118;2023-09-07T08:29:57;21.50;99.90
12827;DHT22;66927;48.812;9.118;2023-09-07T08:32:24;21.60;99.90
12827;DHT22;66927;48.812;9.118;2023-09-07T08:34:50;21.60;99.90
12827;DHT22;66927;48.812;9.118;2023-09-07T08:37:16;21.70;99.90
12827;DHT22;66927;48.812;9.118;2023-09-07T08:39:42;21.70;99.90
12827;DHT22;66927;48.812;9.118;2023-09-07T08:42:07;21.80;99.90
12827;DHT22;66927;48.812;9.118;2023-09-07T08:44:37;21.90;99.90
12827;DHT22;66927;48.812;9.118;2023-09-07T08:47:03;21.90;99.90
12827;DHT22;66927;48.812;9.118;2023-09-07T08:49:30;22.00;99.90
12827;DHT22;66927;48.812;9.118;2023-09-07T08:51:58;22.00;99.90
12827;DHT22;66927;48.812;9.118;2023-09-07T08:54:25;22.10;99.90
12827;DHT22;66927;48.812;9.118;2023-09-07T08:56:50;22.10;99.90
12827;DHT22;66927;48.812;9.118;2023-09-07T08:59:16;22.20;99.90
12827;DHT22;66927;48.812;9.118;2023-09-07T09:01:41;22.30;99.90
12827;DHT22;66927;48.812;9.118;2023-09-07T09:04:07;22.30;99.80
12827;DHT22;66927;48.812;9.118;2023-09-07T09:06:33;22.40;99.90
12827;DHT22;66927;48.812;9.118;2023-09-07T09:08:59;22.40;99.50
12827;DHT22;66927;48.812;9.118;2023-09-07T09:11:25;22.50;99.90
12827;DHT22;66927;48.812;9.118;2023-09-07T09:13:52;22.50;99.90
12827;DHT22;66927;48.812;9.118;2023-09-07T09:16:19;22.60;99.90
12827;DHT22;66927;48.812;9.118;2023-09-07T09:18:53;22.70;99.70
12827;DHT22;66927;48.812;9.118;2023-09-07T09:21:20;22.70;99.80
12827;DHT22;66927;48.812;9.118;2023-09-07T09:23:47;22.80;99.90
12827;DHT22;66927;48.812;9.118;2023-09-07T09:26:13;22.90;99.90
12827;DHT22;66927;48.812;9.118;2023-09-07T09:28:39;22.90;99.40
12827;DHT22;66927;48.812;9.118;2023-09-07T09:31:06;22.90;99.60
12827;DHT22;66927;48.812;9.118;2023-09-07T09:33:42;23.00;99.90
12827;DHT22;66927;48.812;9.118;2023-09-07T09:36:08;23.00;99.90
12827;DHT22;66927;48.812;9.118;2023-09-07T09:38:35;23.10;99.40
12827;DHT22;66927;48.812;9.118;2023-09-07T09:41:00;23.20;99.50
12827;DHT22;66927;48.812;9.118;2023-09-07T09:43:28;23.30;99.10
12827;DHT22;66927;48.812;9.118;2023-09-07T09:45:54;23.30;99.30
12827;DHT22;66927;48.812;9.118;2023-09-07T09:48:21;23.40;99.40
12827;DHT22;66927;48.812;9.118;2023-09-07T09:50:47;23.40;99.10
12827;DHT22;66927;48.812;9.118;2023-09-07T09:53:17;23.50;99.10
12827;DHT22;66927;48.812;9.118;2023-09-07T09:55:50;23.60;99.10
12827;DHT22;66927;48.812;9.118;2023-09-07T09:58:18;23.60;99.10
12827;DHT22;66927;48.812;9.118;2023-09-07T10:00:49;23.70;99.00
12827;DHT22;66927;48.812;9.118;2023-09-07T10:03:29;23.80;99.10
12827;DHT22;66927;48.812;9.118;2023-09-07T10:06:07;23.80;99.40
12827;DHT22;66927;48.812;9.118;2023-09-07T10:08:33;23.90;99.10
12827;DHT22;66927;48.812;9.118;2023-09-07T10:10:59;24.00;99.10
12827;DHT22;66927;48.812;9.118;2023-09-07T10:13:29;24.10;98.90
12827;DHT22;66927;48.812;9.118;2023-09-07T10:16:03;24.20;99.10
12827;DHT22;66927;48.812;9.118;2023-09-07T10:18:39;24.30;98.70
12827;DHT22;66927;48.812;9.118;2023-09-07T10:21:05;24.40;98.80
12827;DHT22;66927;48.812;9.118;2023-09-07T10:23:39;24.50;98.80
12827;DHT22;66927;48.812;9.118;2023-09-07T10:26:13;24.60;98.50
12827;DHT22;66927;48.812;9.118;2023-09-07T10:28:39;24.70;98.40
12827;DHT22;66927;48.812;9.118;2023-09-07T10:31:18;24.80;98.10
12827;DHT22;66927;48.812;9.118;2023-09-07T10:33:45;24.80;97.80
12827;DHT22;66927;48.812;9.118;2023-09-07T10:36:24;24.90;97.80
12827;DHT22;66927;48.812;9.118;2023-09-07T10:38:50;24.90;97.60
12827;DHT22;66927;48.812;9.118;2023-09-07T10:41:19;25.00;97.60
12827;DHT22;66927;48.812;9.118;2023-09-07T10:43:49;25.10;97.40
12827;DHT22;66927;48.812;9.118;2023-09-07T10:46:15;25.20;97.40
12827;DHT22;66927;48.812;9.118;2023-09-07T10:48:43;25.30;97.20
12827;DHT22;66927;48.812;9.118;2023-09-07T10:51:08;25.40;97.20
12827;DHT22;66927;48.812;9.118;2023-09-07T10:53:34;25.50;97.00
12827;DHT22;66927;48.812;9.118;2023-09-07T10:56:03;25.80;96.60
12827;DHT22;66927;48.812;9.118;2023-09-07T10:58:32;26.00;96.80
12827;DHT22;66927;48.812;9.118;2023-09-07T11:00:58;26.30;96.30
12827;DHT22;66927;48.812;9.118;2023-09-07T11:03:27;26.60;95.90
12827;DHT22;66927;48.812;9.118;2023-09-07T11:06:04;27.00;95.50
12827;DHT22;66927;48.812;9.118;2023-09-07T11:08:31;27.40;95.30
12827;DHT22;66927;48.812;9.118;2023-09-07T11:10:58;27.80;94.70
12827;DHT22;66927;48.812;9.118;2023-09-07T11:13:25;28.20;93.90
12827;DHT22;66927;48.812;9.118;2023-09-07T11:15:56;28.60;93.30
12827;DHT22;66927;48.812;9.118;2023-09-07T11:18:24;29.10;93.00
12827;DHT22;66927;48.812;9.118;2023-09-07T11:20:51;29.30;92.20
12827;DHT22;66927;48.812;9.118;2023-09-07T11:23:18;29.70;92.00
12827;DHT22;66927;48.812;9.118;2023-09-07T11:25:46;29.70;91.70
12827;DHT22;66927;48.812;9.118;2023-09-07T11:28:11;29.80;91.70
12827;DHT22;66927;48.812;9.118;2023-09-07T11:30:47;29.80;91.30
12827;DHT22;66927;48.812;9.118;2023-09-07T11:33:15;30.00;91.20
12827;DHT22;66927;48.812;9.118;2023-09-07T11:35:41;30.10;91.30
12827;DHT22;66927;48.812;9.118;2023-09-07T11:38:07;30.00;91.10
12827;DHT22;66927;48.812;9.118;2023-09-07T11:40:35;30.10;91.00
12827;DHT22;66927;48.812;9.118;2023-09-07T11:43:01;30.10;91.00
12827;DHT22;66927;48.812;9.118;2023-09-07T11:45:26;30.30;90.80
12827;DHT22;66927;48.812;9.118;2023-09-07T11:47:52;30.30;90.60
12827;DHT22;66927;48.812;9.118;2023-09-07T11:50:18;30.50;90.50
12827;DHT22;66927;48.812;9.118;2023-09-07T11:52:47;30.60;90.60
12827;DHT22;66927;48.812;9.118;2023-09-07T11:55:16;30.80;90.50
12827;DHT22;66927;48.812;9.118;2023-09-07T11:57:41;30.90;89.50
12827;DHT22;66927;48.812;9.118;2023-09-07T12:00:07;30.90;89.20
12827;DHT22;66927;48.812;9.118;2023-09-07T12:02:37;31.00;89.70
12827;DHT22;66927;48.812;9.118;2023-09-07T12:05:03;31.00;88.50
12827;DHT22;66927;48.812;9.118;2023-09-07T12:07:29;30.80;88.80
12827;DHT22;66927;48.812;9.118;2023-09-07T12:09:56;30.90;89.20
12827;DHT22;66927;48.812;9.118;2023-09-07T12:12:23;30.90;88.20
12827;DHT22;66927;48.812;9.118;2023-09-07T12:14:48;31.00;87.70
12827;DHT22;66927;48.812;9.118;2023-09-07T12:17:14;31.10;88.00
12827;DHT22;66927;48.812;9.118;2023-09-07T12:19:39;31.20;88.70
12827;DHT22;66927;48.812;9.118;2023-09-07T12:22:07;31.20;87.70
12827;DHT22;66927;48.812;9.118;2023-09-07T12:24:33;31.30;87.50
12827;DHT22;66927;48.812;9.118;2023-09-07T12:26:59;31.20;86.40
12827;DHT22;66927;48.812;9.118;2023-09-07T12:29:25;31.30;86.80
12827;DHT22;66927;48.812;9.118;2023-09-07T12:31:51;31.40;87.10
12827;DHT22;66927;48.812;9.118;2023-09-07T12:34:18;31.50;85.90
12827;DHT22;66927;48.812;9.118;2023-09-07T12:36:43;31.50;85.70
12827;DHT22;66927;48.812;9.118;2023-09-07T12:39:09;31.60;85.90
12827;DHT22;66927;48.812;9.118;2023-09-07T12:41:38;31.60;85.60
12827;DHT22;66927;48.812;9.118;2023-09-07T12:44:04;31.60;85.10
12827;DHT22;66927;48.812;9.118;2023-09-07T12:46:30;31.70;83.60
12827;DHT22;66927;48.812;9.118;2023-09-07T12:48:56;31.80;84.00
12827;DHT22;66927;48.812;9.118;2023-09-07T12:51:21;31.70;84.50
12827;DHT22;66927;48.812;9.118;2023-09-07T12:53:47;31.70;84.00
12827;DHT22;66927;48.812;9.118;2023-09-07T12:56:12;31.80;84.70
12827;DHT22;66927;48.812;9.118;2023-09-07T12:58:41;31.90;84.90
12827;DHT22;66927;48.812;9.118;2023-09-07T13:01:07;32.00;84.70
12827;DHT22;66927;48.812;9.118;2023-09-07T13:03:37;32.10;84.10
12827;DHT22;66927;48.812;9.118;2023-09-07T13:06:03;32.10;84.10
12827;DHT22;66927;48.812;9.118;2023-09-07T13:08:29;32.30;83.20
12827;DHT22;66927;48.812;9.118;2023-09-07T13:10:55;32.30;83.30
12827;DHT22;66927;48.812;9.118;2023-09-07T13:13:22;32.40;82.90
12827;DHT22;66927;48.812;9.118;2023-09-07T13:15:50;32.30;83.30
12827;DHT22;66927;48.812;9.118;2023-09-07T13:18:15;32.40;83.40
12827;DHT22;66927;48.812;9.118;2023-09-07T13:20:41;32.50;82.60
12827;DHT22;66927;48.812;9.118;2023-09-07T13:23:07;32.50;82.00
12827;DHT22;66927;48.812;9.118;2023-09-07T13:25:33;32.60;82.70
12827;DHT22;66927;48.812;9.118;2023-09-07T13:27:58;32.50;81.50
12827;DHT22;66927;48.812;9.118;2023-09-07T13:30:24;32.50;81.00
12827;DHT22;66927;48.812;9.118;2023-09-07T13:32:50;32.50;80.60
12827;DHT22;66927;48.812;9.118;2023-09-07T13:35:16;32.50;81.50
12827;DHT22;66927;48.812;9.118;2023-09-07T13:37:42;32.50;81.10
12827;DHT22;66927;48.812;9.118;2023-09-07T13:40:08;32.60;81.10
12827;DHT22;66927;48.812;9.118;2023-09-07T13:42:34;32.70;81.00
12827;DHT22;66927;48.812;9.118;2023-09-07T13:45:00;32.50;80.00
12827;DHT22;66927;48.812;9.118;2023-09-07T13:47:25;32.50;79.80
12827;DHT22;66927;48.812;9.118;2023-09-07T13:49:51;32.60;80.40
12827;DHT22;66927;48.812;9.118;2023-09-07T13:52:17;32.70;80.50
12827;DHT22;66927;48.812;9.118;2023-09-07T13:54:42;32.70;80.80
12827;DHT22;66927;48.812;9.118;2023-09-07T13:57:08;32.80;80.60
12827;DHT22;66927;48.812;9.118;2023-09-07T13:59:39;32.90;81.10
12827;DHT22;66927;48.812;9.118;2023-09-07T14:02:05;32.90;82.00
12827;DHT22;66927;48.812;9.118;2023-09-07T14:04:31;33.00;82.00
12827;DHT22;66927;48.812;9.118;2023-09-07T14:06:56;33.00;81.80
12827;DHT22;66927;48.812;9.118;2023-09-07T14:09:22;33.10;81.60
12827;DHT22;66927;48.812;9.118;2023-09-07T14:11:48;33.10;81.40
12827;DHT22;66927;48.812;9.118;2023-09-07T14:14:14;33.10;81.10
12827;DHT22;66927;48.812;9.118;2023-09-07T14:16:40;33.10;80.70
12827;DHT22;66927;48.812;9.118;2023-09-07T14:19:06;33.10;80.50
12827;DHT22;66927;48.812;9.118;2023-09-07T14:21:32;33.20;80.50
12827;DHT22;66927;48.812;9.118;2023-09-07T14:23:57;33.10;80.20
12827;DHT22;66927;48.812;9.118;2023-09-07T14:26:23;33.20;80.00
12827;DHT22;66927;48.812;9.118;2023-09-07T14:28:48;33.20;79.90
12827;DHT22;66927;48.812;9.118;2023-09-07T14:31:14;33.20;79.90
12827;DHT22;66927;48.812;9.118;2023-09-07T14:33:40;33.10;80.10
12827;DHT22;66927;48.812;9.118;2023-09-07T14:36:08;33.30;80.30
12827;DHT22;66927;48.812;9.118;2023-09-07T14:38:37;33.30;80.30
12827;DHT22;66927;48.812;9.118;2023-09-07T14:41:10;33.20;79.90
12827;DHT22;66927;48.812;9.118;2023-09-07T14:43:43;33.30;79.40
12827;DHT22;66927;48.812;9.118;2023-09-07T14:46:08;33.20;78.00
12827;DHT22;66927;48.812;9.118;2023-09-07T14:48:34;33.30;78.10
12827;DHT22;66927;48.812;9.118;2023-09-07T14:50:59;33.20;78.60
12827;DHT22;66927;48.812;9.118;2023-09-07T14:53:25;33.30;78.60
12827;DHT22;66927;48.812;9.118;2023-09-07T14:55:50;33.30;78.60
12827;DHT22;66927;48.812;9.118;2023-09-07T14:58:16;33.30;78.80
12827;DHT22;66927;48.812;9.118;2023-09-07T15:00:42;33.30;79.00
12827;DHT22;66927;48.812;9.118;2023-09-07T15:03:07;33.40;79.00
12827;DHT22;66927;48.812;9.118;2023-09-07T15:05:33;33.40;78.90
12827;DHT22;66927;48.812;9.118;2023-09-07T15:07:59;33.40;78.30
12827;DHT22;66927;48.812;9.118;2023-09-07T15:10:28;33.30;78.70
12827;DHT22;66927;48.812;9.118;2023-09-07T15:12:54;33.40;77.10
12827;DHT22;66927;48.812;9.118;2023-09-07T15:15:20;33.40;77.10
12827;DHT22;66927;48.812;9.118;2023-09-07T15:17:49;33.40;77.60
12827;DHT22;66927;48.812;9.118;2023-09-07T15:20:14;33.30;77.80
12827;DHT22;66927;48.812;9.118;2023-09-07T15:22:40;33.20;76.90
12827;DHT22;66927;48.812;9.118;2023-09-07T15:25:06;33.20;76.30
12827;DHT22;66927;48.812;9.118;2023-09-07T15:27:31;33.30;76.60